sensor_id;sensor_type;location;lat;lon;timestamp;temperature;humidity
27114;DHT22;14648;49.730;8.614;2022-09-20T00:01:05;12.90;65.00
27114;DHT22;14648;49.730;8.614;2022-09-20T00:03:39;12.80;64.80
27114;DHT22;14648;49.730;8.614;2022-09-20T00:06:09;12.90;64.90
27114;DHT22;14648;49.730;8.614;2022-09-20T00:08:37;12.80;64.80
27114;DHT22;14648;49.730;8.614;2022-09-20T00:11:11;12.80;64.70
27114;DHT22;14648;49.730;8.614;2022-09-20T00:13:41;12.80;64.90
27114;DHT22;14648;49.730;8.614;2022-09-20T00:16:16;12.80;64.80
27114;DHT22;14648;49.730;8.614;2022-09-20T00:18:52;12.80;65.00
27114;DHT22;14648;49.730;8.614;2022-09-20T00:21:25;12.80;64.90
27114;DHT22;14648;49.730;8.614;2022-09-20T00:23:52;12.80;65.10
27114;DHT22;14648;49.730;8.614;2022-09-20T00:26:19;12.70;65.20
27114;DHT22;14648;49.730;8.614;2022-09-20T00:28:45;12.80;65.30
27114;DHT22;14648;49.730;8.614;2022-09-20T00:31:12;12.80;65.30
27114;DHT22;14648;49.730;8.614;2022-09-20T00:33:39;12.80;65.30
27114;DHT22;14648;49.730;8.614;2022-09-20T00:36:23;12.90;65.40
27114;DHT22;14648;49.730;8.614;2022-09-20T00:38:57;12.90;65.30
27114;DHT22;14648;49.730;8.614;2022-09-20T00:41:24;12.90;65.40
27114;DHT22;14648;49.730;8.614;2022-09-20T00:43:50;12.90;65.40
27114;DHT22;14648;49.730;8.614;2022-09-20T00:46:35;12.90;65.40
27114;DHT22;14648;49.730;8.614;2022-09-20T00:51:48;12.80;65.50
27114;DHT22;14648;49.730;8.614;2022-09-20T00:54:18;12.80;65.50
27114;DHT22;14648;49.730;8.614;2022-09-20T00:56:44;12.80;65.60
27114;DHT22;14648;49.730;8.614;2022-09-20T00:59:20;12.80;65.60
27114;DHT22;14648;49.730;8.614;2022-09-20T01:02:07;12.80;65.90
27114;DHT22;14648;49.730;8.614;2022-09-20T01:04:38;12.70;65.90
27114;DHT22;14648;49.730;8.614;2022-09-20T01:07:07;12.80;65.70
27114;DHT22;14648;49.730;8.614;2022-09-20T01:09:33;12.80;65.70
27114;DHT22;14648;49.730;8.614;2022-09-20T01:12:03;12.80;65.70
27114;DHT22;14648;49.730;8.614;2022-09-20T01:14:31;12.80;65.80
27114;DHT22;14648;49.730;8.614;2022-09-20T01:17:02;12.70;65.90
27114;DHT22;14648;49.730;8.614;2022-09-20T01:20:00;12.70;66.00
27114;DHT22;14648;49.730;8.614;2022-09-20T01:22:36;12.70;66.20
27114;DHT22;14648;49.730;8.614;2022-09-20T01:25:24;12.70;65.90
27114;DHT22;14648;49.730;8.614;2022-09-20T01:28:02;12.70;65.90
27114;DHT22;14648;49.730;8.614;2022-09-20T01:30:38;12.70;65.90
27114;DHT22;14648;49.730;8.614;2022-09-20T01:33:37;12.60;66.10
27114;DHT22;14648;49.730;8.614;2022-09-20T01:36:05;12.70;66.30
27114;DHT22;14648;49.730;8.614;2022-09-20T01:38:53;12.70;66.00
27114;DHT22;14648;49.730;8.614;2022-09-20T01:41:57;12.70;66.30
27114;DHT22;14648;49.730;8.614;2022-09-20T01:47:30;12.70;66.10
27114;DHT22;14648;49.730;8.614;2022-09-20T01:50:36;12.70;66.20
27114;DHT22;14648;49.730;8.614;2022-09-20T02:03:12;12.80;66.00
27114;DHT22;14648;49.730;8.614;2022-09-20T02:12:58;12.70;66.10
27114;DHT22;14648;49.730;8.614;2022-09-20T02:18:29;12.60;66.00
27114;DHT22;14648;49.730;8.614;2022-09-20T02:21:10;12.60;65.80
27114;DHT22;14648;49.730;8.614;2022-09-20T02:24:02;12.60;66.00
27114;DHT22;14648;49.730;8.614;2022-09-20T02:29:55;12.60;65.80
27114;DHT22;14648;49.730;8.614;2022-09-20T02:32:57;12.60;65.70
27114;DHT22;14648;49.730;8.614;2022-09-20T02:44:54;12.40;65.40
27114;DHT22;14648;49.730;8.614;2022-09-20T02:47:38;12.40;65.40
27114;DHT22;14648;49.730;8.614;2022-09-20T02:56:32;12.20;65.70
27114;DHT22;14648;49.730;8.614;2022-09-20T02:59:25;12.10;65.70
27114;DHT22;14648;49.730;8.614;2022-09-20T03:01:58;12.00;65.60
27114;DHT22;14648;49.730;8.614;2022-09-20T03:14:09;11.90;65.70
27114;DHT22;14648;49.730;8.614;2022-09-20T03:16:56;11.80;65.60
27114;DHT22;14648;49.730;8.614;2022-09-20T03:25:36;11.80;65.40
27114;DHT22;14648;49.730;8.614;2022-09-20T03:31:31;11.80;65.40
27114;DHT22;14648;49.730;8.614;2022-09-20T03:37:26;11.70;65.10
27114;DHT22;14648;49.730;8.614;2022-09-20T03:42:53;11.70;64.90
27114;DHT22;14648;49.730;8.614;2022-09-20T03:48:26;11.60;64.90
27114;DHT22;14648;49.730;8.614;2022-09-20T04:00:05;11.60;64.80
27114;DHT22;14648;49.730;8.614;2022-09-20T04:08:50;11.40;65.20
27114;DHT22;14648;49.730;8.614;2022-09-20T04:20:53;11.50;65.30
27114;DHT22;14648;49.730;8.614;2022-09-20T04:23:49;11.50;65.00
27114;DHT22;14648;49.730;8.614;2022-09-20T04:26:25;11.40;65.00
27114;DHT22;14648;49.730;8.614;2022-09-20T04:31:54;11.50;65.20
27114;DHT22;14648;49.730;8.614;2022-09-20T04:34:34;11.50;65.20
27114;DHT22;14648;49.730;8.614;2022-09-20T04:37:27;11.50;65.40
27114;DHT22;14648;49.730;8.614;2022-09-20T04:46:24;11.50;65.60
27114;DHT22;14648;49.730;8.614;2022-09-20T04:58:39;11.60;65.70
27114;DHT22;14648;49.730;8.614;2022-09-20T05:13:20;11.60;65.80
27114;DHT22;14648;49.730;8.614;2022-09-20T05:16:13;11.60;65.60
27114;DHT22;14648;49.730;8.614;2022-09-20T05:19:25;11.50;65.90
27114;DHT22;14648;49.730;8.614;2022-09-20T05:22:57;11.50;66.90
27114;DHT22;14648;49.730;8.614;2022-09-20T05:25:41;11.50;66.20
27114;DHT22;14648;49.730;8.614;2022-09-20T05:28:43;11.40;66.00
27114;DHT22;14648;49.730;8.614;2022-09-20T05:31:24;11.40;66.10
27114;DHT22;14648;49.730;8.614;2022-09-20T05:34:03;11.50;66.10
27114;DHT22;14648;49.730;8.614;2022-09-20T05:36:52;11.40;66.00
27114;DHT22;14648;49.730;8.614;2022-09-20T05:39:37;11.50;66.20
27114;DHT22;14648;49.730;8.614;2022-09-20T05:42:36;11.50;66.10
27114;DHT22;14648;49.730;8.614;2022-09-20T05:45:32;11.50;66.20
27114;DHT22;14648;49.730;8.614;2022-09-20T05:51:46;11.50;66.00
27114;DHT22;14648;49.730;8.614;2022-09-20T05:54:47;11.50;66.00
27114;DHT22;14648;49.730;8.614;2022-09-20T05:57:31;11.40;66.00
27114;DHT22;14648;49.730;8.614;2022-09-20T06:00:08;11.40;66.00
27114;DHT22;14648;49.730;8.614;2022-09-20T06:11:45;11.50;66.70
27114;DHT22;14648;49.730;8.614;2022-09-20T06:20:07;11.70;67.10
27114;DHT22;14648;49.730;8.614;2022-09-20T06:22:48;11.70;67.70
27114;DHT22;14648;49.730;8.614;2022-09-20T06:25:20;11.80;66.90
27114;DHT22;14648;49.730;8.614;2022-09-20T06:28:02;11.80;66.90
27114;DHT22;14648;49.730;8.614;2022-09-20T06:30:38;11.80;67.10
27114;DHT22;14648;49.730;8.614;2022-09-20T06:33:24;11.90;67.20
27114;DHT22;14648;49.730;8.614;2022-09-20T06:42:04;12.00;67.30
27114;DHT22;14648;49.730;8.614;2022-09-20T06:44:31;12.10;68.10
27114;DHT22;14648;49.730;8.614;2022-09-20T06:46:57;12.10;67.40
27114;DHT22;14648;49.730;8.614;2022-09-20T06:49:23;12.10;67.50
27114;DHT22;14648;49.730;8.614;2022-09-20T06:51:53;12.20;67.60
27114;DHT22;14648;49.730;8.614;2022-09-20T06:54:21;12.10;67.60
27114;DHT22;14648;49.730;8.614;2022-09-20T06:56:48;12.10;67.70
27114;DHT22;14648;49.730;8.614;2022-09-20T06:59:15;12.10;68.00
27114;DHT22;14648;49.730;8.614;2022-09-20T07:01:42;12.10;68.10
27114;DHT22;14648;49.730;8.614;2022-09-20T07:04:08;12.10;68.10
27114;DHT22;14648;49.730;8.614;2022-09-20T07:06:34;12.20;68.10
27114;DHT22;14648;49.730;8.614;2022-09-20T07:09:01;12.20;68.10
27114;DHT22;14648;49.730;8.614;2022-09-20T07:11:27;12.20;68.10
27114;DHT22;14648;49.730;8.614;2022-09-20T07:13:55;12.30;68.10
27114;DHT22;14648;49.730;8.614;2022-09-20T07:16:23;12.30;68.10
27114;DHT22;14648;49.730;8.614;2022-09-20T07:18:50;12.40;68.20
27114;DHT22;14648;49.730;8.614;2022-09-20T07:21:18;12.40;68.20
27114;DHT22;14648;49.730;8.614;2022-09-20T07:23:45;12.40;68.20
27114;DHT22;14648;49.730;8.614;2022-09-20T07:26:33;12.50;68.30
27114;DHT22;14648;49.730;8.614;2022-09-20T07:28:59;12.50;68.50
27114;DHT22;14648;49.730;8.614;2022-09-20T07:31:27;12.50;68.30
27114;DHT22;14648;49.730;8.614;2022-09-20T07:33:54;12.60;68.30
27114;DHT22;14648;49.730;8.614;2022-09-20T07:36:20;12.60;68.30
27114;DHT22;14648;49.730;8.614;2022-09-20T07:38:51;12.60;68.40
27114;DHT22;14648;49.730;8.614;2022-09-20T07:41:18;12.70;68.60
27114;DHT22;14648;49.730;8.614;2022-09-20T07:43:47;12.80;68.60
27114;DHT22;14648;49.730;8.614;2022-09-20T07:46:13;12.80;68.60
27114;DHT22;14648;49.730;8.614;2022-09-20T07:48:39;12.80;68.80
27114;DHT22;14648;49.730;8.614;2022-09-20T07:51:08;12.90;68.90
27114;DHT22;14648;49.730;8.614;2022-09-20T07:53:36;13.00;69.00
27114;DHT22;14648;49.730;8.614;2022-09-20T07:56:13;13.10;69.00
27114;DHT22;14648;49.730;8.614;2022-09-20T07:58:41;13.10;69.10
27114;DHT22;14648;49.730;8.614;2022-09-20T08:01:09;13.30;69.20
27114;DHT22;14648;49.730;8.614;2022-09-20T08:03:37;13.40;69.20
27114;DHT22;14648;49.730;8.614;2022-09-20T08:06:05;13.60;69.20
27114;DHT22;14648;49.730;8.614;2022-09-20T08:08:34;13.60;69.10
27114;DHT22;14648;49.730;8.614;2022-09-20T08:11:13;13.70;69.00
27114;DHT22;14648;49.730;8.614;2022-09-20T08:13:47;13.80;68.80
27114;DHT22;14648;49.730;8.614;2022-09-20T08:16:14;13.90;68.80
27114;DHT22;14648;49.730;8.614;2022-09-20T08:19:01;13.90;68.70
27114;DHT22;14648;49.730;8.614;2022-09-20T08:21:32;14.00;68.50
27114;DHT22;14648;49.730;8.614;2022-09-20T08:23:59;14.10;68.60
27114;DHT22;14648;49.730;8.614;2022-09-20T08:26:27;14.20;68.50
27114;DHT22;14648;49.730;8.614;2022-09-20T08:28:55;14.20;68.40
27114;DHT22;14648;49.730;8.614;2022-09-20T08:31:24;14.50;68.30
27114;DHT22;14648;49.730;8.614;2022-09-20T08:33:52;14.60;68.00
27114;DHT22;14648;49.730;8.614;2022-09-20T08:36:22;14.70;67.90
27114;DHT22;14648;49.730;8.614;2022-09-20T08:38:49;14.80;67.60
27114;DHT22;14648;49.730;8.614;2022-09-20T08:41:32;14.90;67.50
27114;DHT22;14648;49.730;8.614;2022-09-20T08:44:02;14.90;67.30
27114;DHT22;14648;49.730;8.614;2022-09-20T08:46:41;15.10;67.30
27114;DHT22;14648;49.730;8.614;2022-09-20T08:49:24;15.10;66.90
27114;DHT22;14648;49.730;8.614;2022-09-20T08:51:52;15.20;66.60
27114;DHT22;14648;49.730;8.614;2022-09-20T08:54:19;15.30;66.70
27114;DHT22;14648;49.730;8.614;2022-09-20T08:56:48;15.40;66.40
27114;DHT22;14648;49.730;8.614;2022-09-20T08:59:17;15.50;66.20
27114;DHT22;14648;49.730;8.614;2022-09-20T09:01:48;15.50;65.90
27114;DHT22;14648;49.730;8.614;2022-09-20T09:04:21;15.50;65.80
27114;DHT22;14648;49.730;8.614;2022-09-20T09:06:49;15.60;65.10
27114;DHT22;14648;49.730;8.614;2022-09-20T09:09:26;15.60;65.00
27114;DHT22;14648;49.730;8.614;2022-09-20T09:11:54;15.60;64.50
27114;DHT22;14648;49.730;8.614;2022-09-20T09:14:33;15.60;64.40
27114;DHT22;14648;49.730;8.614;2022-09-20T09:17:27;15.70;64.40
27114;DHT22;14648;49.730;8.614;2022-09-20T09:19:59;15.70;64.20
27114;DHT22;14648;49.730;8.614;2022-09-20T09:22:38;15.70;64.00
27114;DHT22;14648;49.730;8.614;2022-09-20T09:25:22;15.80;63.80
27114;DHT22;14648;49.730;8.614;2022-09-20T09:28:02;15.90;63.30
27114;DHT22;14648;49.730;8.614;2022-09-20T09:30:45;16.00;63.20
27114;DHT22;14648;49.730;8.614;2022-09-20T09:33:31;16.20;62.80
27114;DHT22;14648;49.730;8.614;2022-09-20T09:36:22;16.30;62.40
27114;DHT22;14648;49.730;8.614;2022-09-20T09:38:50;16.40;62.20
27114;DHT22;14648;49.730;8.614;2022-09-20T09:41:41;16.40;62.00
27114;DHT22;14648;49.730;8.614;2022-09-20T09:44:28;16.40;61.70
27114;DHT22;14648;49.730;8.614;2022-09-20T09:46:57;16.40;61.00
27114;DHT22;14648;49.730;8.614;2022-09-20T09:49:30;16.30;61.30
27114;DHT22;14648;49.730;8.614;2022-09-20T09:52:01;16.30;60.80
27114;DHT22;14648;49.730;8.614;2022-09-20T09:54:32;16.30;60.70
27114;DHT22;14648;49.730;8.614;2022-09-20T09:57:09;16.30;60.30
27114;DHT22;14648;49.730;8.614;2022-09-20T10:03:10;16.40;59.50
27114;DHT22;14648;49.730;8.614;2022-09-20T10:09:17;16.60;59.30
27114;DHT22;14648;49.730;8.614;2022-09-20T10:11:52;16.60;59.10
27114;DHT22;14648;49.730;8.614;2022-09-20T10:14:37;16.70;59.30
27114;DHT22;14648;49.730;8.614;2022-09-20T10:20:06;17.00;59.30
27114;DHT22;14648;49.730;8.614;2022-09-20T10:22:56;17.20;58.60
27114;DHT22;14648;49.730;8.614;2022-09-20T10:29:07;17.90;57.70
27114;DHT22;14648;49.730;8.614;2022-09-20T10:32:15;18.20;57.50
27114;DHT22;14648;49.730;8.614;2022-09-20T10:45:29;18.60;55.30
27114;DHT22;14648;49.730;8.614;2022-09-20T10:48:03;18.50;55.40
27114;DHT22;14648;49.730;8.614;2022-09-20T10:50:45;18.40;55.00
27114;DHT22;14648;49.730;8.614;2022-09-20T10:56:35;18.20;53.20
27114;DHT22;14648;49.730;8.614;2022-09-20T11:02:11;17.50;52.90
27114;DHT22;14648;49.730;8.614;2022-09-20T11:05:14;17.20;53.30
27114;DHT22;14648;49.730;8.614;2022-09-20T11:08:08;17.00;53.70
27114;DHT22;14648;49.730;8.614;2022-09-20T11:10:47;16.70;54.00
27114;DHT22;14648;49.730;8.614;2022-09-20T11:13:34;16.50;54.40
27114;DHT22;14648;49.730;8.614;2022-09-20T11:19:20;16.10;55.00
27114;DHT22;14648;49.730;8.614;2022-09-20T11:24:56;15.80;55.20
27114;DHT22;14648;49.730;8.614;2022-09-20T11:27:39;15.80;55.50
27114;DHT22;14648;49.730;8.614;2022-09-20T11:38:33;15.60;56.40
27114;DHT22;14648;49.730;8.614;2022-09-20T11:41:26;15.70;56.30
27114;DHT22;14648;49.730;8.614;2022-09-20T11:44:08;15.80;56.40
27114;DHT22;14648;49.730;8.614;2022-09-20T11:46:46;16.00;56.10
27114;DHT22;14648;49.730;8.614;2022-09-20T11:52:23;16.70;55.80
27114;DHT22;14648;49.730;8.614;2022-09-20T11:55:15;17.10;54.70
27114;DHT22;14648;49.730;8.614;2022-09-20T11:58:08;17.30;54.30
27114;DHT22;14648;49.730;8.614;2022-09-20T12:00:39;17.40;53.70
27114;DHT22;14648;49.730;8.614;2022-09-20T12:03:29;17.40;53.30
27114;DHT22;14648;49.730;8.614;2022-09-20T12:05:58;17.40;52.90
27114;DHT22;14648;49.730;8.614;2022-09-20T12:08:39;17.40;53.40
27114;DHT22;14648;49.730;8.614;2022-09-20T12:11:12;17.40;53.20
27114;DHT22;14648;49.730;8.614;2022-09-20T12:13:51;17.40;53.20
27114;DHT22;14648;49.730;8.614;2022-09-20T12:16:55;17.40;53.20
27114;DHT22;14648;49.730;8.614;2022-09-20T12:24:33;17.10;53.70
27114;DHT22;14648;49.730;8.614;2022-09-20T12:27:05;17.00;53.60
27114;DHT22;14648;49.730;8.614;2022-09-20T12:30:04;16.90;54.10
27114;DHT22;14648;49.730;8.614;2022-09-20T12:32:49;16.80;54.50
27114;DHT22;14648;49.730;8.614;2022-09-20T12:38:27;16.40;55.40
27114;DHT22;14648;49.730;8.614;2022-09-20T12:41:20;16.40;55.60
27114;DHT22;14648;49.730;8.614;2022-09-20T12:43:49;16.30;56.00
27114;DHT22;14648;49.730;8.614;2022-09-20T12:46:25;16.30;56.30
27114;DHT22;14648;49.730;8.614;2022-09-20T12:52:30;16.60;57.00
27114;DHT22;14648;49.730;8.614;2022-09-20T12:55:40;16.90;55.80
27114;DHT22;14648;49.730;8.614;2022-09-20T13:08:34;17.60;54.50
27114;DHT22;14648;49.730;8.614;2022-09-20T13:14:11;17.70;54.70
27114;DHT22;14648;49.730;8.614;2022-09-20T13:17:03;17.80;54.50
27114;DHT22;14648;49.730;8.614;2022-09-20T13:19:34;17.80;54.10
27114;DHT22;14648;49.730;8.614;2022-09-20T13:22:11;17.90;54.20
27114;DHT22;14648;49.730;8.614;2022-09-20T13:24:45;17.90;53.80
27114;DHT22;14648;49.730;8.614;2022-09-20T13:27:24;17.90;52.80
27114;DHT22;14648;49.730;8.614;2022-09-20T13:29:53;17.80;52.70
27114;DHT22;14648;49.730;8.614;2022-09-20T13:32:31;17.80;52.80
27114;DHT22;14648;49.730;8.614;2022-09-20T13:37:53;17.60;52.50
27114;DHT22;14648;49.730;8.614;2022-09-20T13:40:43;17.40;52.70
27114;DHT22;14648;49.730;8.614;2022-09-20T13:43:28;17.60;53.40
27114;DHT22;14648;49.730;8.614;2022-09-20T13:45:58;18.00;53.00
27114;DHT22;14648;49.730;8.614;2022-09-20T13:48:26;18.30;52.60
27114;DHT22;14648;49.730;8.614;2022-09-20T13:50:54;18.60;52.00
27114;DHT22;14648;49.730;8.614;2022-09-20T13:53:22;18.90;51.70
27114;DHT22;14648;49.730;8.614;2022-09-20T13:55:49;19.20;51.30
27114;DHT22;14648;49.730;8.614;2022-09-20T13:58:24;19.40;50.90
27114;DHT22;14648;49.730;8.614;2022-09-20T14:01:22;19.70;50.50
27114;DHT22;14648;49.730;8.614;2022-09-20T14:03:48;20.00;50.90
27114;DHT22;14648;49.730;8.614;2022-09-20T14:06:14;20.20;49.50
27114;DHT22;14648;49.730;8.614;2022-09-20T14:08:48;20.40;48.90
27114;DHT22;14648;49.730;8.614;2022-09-20T14:11:18;20.50;48.00
27114;DHT22;14648;49.730;8.614;2022-09-20T14:13:54;20.60;47.50
27114;DHT22;14648;49.730;8.614;2022-09-20T14:16:37;20.50;47.30
27114;DHT22;14648;49.730;8.614;2022-09-20T14:19:05;20.40;46.70
27114;DHT22;14648;49.730;8.614;2022-09-20T14:21:35;20.30;46.40
27114;DHT22;14648;49.730;8.614;2022-09-20T14:24:05;20.10;45.90
27114;DHT22;14648;49.730;8.614;2022-09-20T14:26:34;19.90;45.80
27114;DHT22;14648;49.730;8.614;2022-09-20T14:34:58;19.20;45.60
27114;DHT22;14648;49.730;8.614;2022-09-20T14:37:28;19.00;45.50
27114;DHT22;14648;49.730;8.614;2022-09-20T14:39:58;18.90;46.00
27114;DHT22;14648;49.730;8.614;2022-09-20T14:42:44;18.90;46.10
27114;DHT22;14648;49.730;8.614;2022-09-20T14:45:37;18.80;45.80
27114;DHT22;14648;49.730;8.614;2022-09-20T14:55:39;18.40;45.90
27114;DHT22;14648;49.730;8.614;2022-09-20T14:58:19;18.40;46.00
27114;DHT22;14648;49.730;8.614;2022-09-20T15:00:50;18.40;46.10
27114;DHT22;14648;49.730;8.614;2022-09-20T15:03:39;18.40;45.90
27114;DHT22;14648;49.730;8.614;2022-09-20T15:06:09;18.40;46.00
27114;DHT22;14648;49.730;8.614;2022-09-20T15:08:35;18.40;46.90
27114;DHT22;14648;49.730;8.614;2022-09-20T15:11:02;18.50;46.20
27114;DHT22;14648;49.730;8.614;2022-09-20T15:13:28;18.50;46.20
27114;DHT22;14648;49.730;8.614;2022-09-20T15:15:54;18.40;46.00
27114;DHT22;14648;49.730;8.614;2022-09-20T15:18:25;18.40;45.80
27114;DHT22;14648;49.730;8.614;2022-09-20T15:20:53;18.20;45.50
27114;DHT22;14648;49.730;8.614;2022-09-20T15:23:20;18.10;45.60
27114;DHT22;14648;49.730;8.614;2022-09-20T15:25:50;18.10;45.80
27114;DHT22;14648;49.730;8.614;2022-09-20T15:28:18;18.00;46.40
27114;DHT22;14648;49.730;8.614;2022-09-20T15:30:49;17.90;45.90
27114;DHT22;14648;49.730;8.614;2022-09-20T15:33:16;17.80;45.70
27114;DHT22;14648;49.730;8.614;2022-09-20T15:35:43;17.80;45.80
27114;DHT22;14648;49.730;8.614;2022-09-20T15:38:11;17.70;45.80
27114;DHT22;14648;49.730;8.614;2022-09-20T15:40:41;17.60;45.50
27114;DHT22;14648;49.730;8.614;2022-09-20T15:43:12;17.60;45.80
27114;DHT22;14648;49.730;8.614;2022-09-20T15:45:51;17.50;46.10
27114;DHT22;14648;49.730;8.614;2022-09-20T15:48:19;17.50;46.40
27114;DHT22;14648;49.730;8.614;2022-09-20T15:51:04;17.40;46.20
27114;DHT22;14648;49.730;8.614;2022-09-20T15:53:33;17.40;46.50
27114;DHT22;14648;49.730;8.614;2022-09-20T15:56:02;17.30;46.30
27114;DHT22;14648;49.730;8.614;2022-09-20T15:58:32;17.30;46.50
27114;DHT22;14648;49.730;8.614;2022-09-20T16:01:06;17.30;46.60
27114;DHT22;14648;49.730;8.614;2022-09-20T16:03:34;17.20;46.30
27114;DHT22;14648;49.730;8.614;2022-09-20T16:06:04;17.20;46.40
27114;DHT22;14648;49.730;8.614;2022-09-20T16:08:33;17.10;46.60
27114;DHT22;14648;49.730;8.614;2022-09-20T16:10:59;17.00;46.70
27114;DHT22;14648;49.730;8.614;2022-09-20T16:13:26;17.00;46.70
27114;DHT22;14648;49.730;8.614;2022-09-20T16:15:59;17.00;46.80
27114;DHT22;14648;49.730;8.614;2022-09-20T16:18:26;16.90;46.90
27114;DHT22;14648;49.730;8.614;2022-09-20T16:21:12;16.90;47.10
27114;DHT22;14648;49.730;8.614;2022-09-20T16:23:41;16.90;46.90
27114;DHT22;14648;49.730;8.614;2022-09-20T16:26:11;16.80;46.80
27114;DHT22;14648;49.730;8.614;2022-09-20T16:28:38;16.80;47.70
27114;DHT22;14648;49.730;8.614;2022-09-20T16:31:05;16.70;47.00
27114;DHT22;14648;49.730;8.614;2022-09-20T16:33:42;16.60;46.90
27114;DHT22;14648;49.730;8.614;2022-09-20T16:36:08;16.60;47.00
27114;DHT22;14648;49.730;8.614;2022-09-20T16:38:34;16.60;47.10
27114;DHT22;14648;49.730;8.614;2022-09-20T16:41:04;16.50;47.20
27114;DHT22;14648;49.730;8.614;2022-09-20T16:43:30;16.50;47.30
27114;DHT22;14648;49.730;8.614;2022-09-20T16:45:59;16.40;47.40
27114;DHT22;14648;49.730;8.614;2022-09-20T16:48:25;16.40;47.60
27114;DHT22;14648;49.730;8.614;2022-09-20T16:50:56;16.30;47.80
27114;DHT22;14648;49.730;8.614;2022-09-20T16:53:25;16.30;48.20
27114;DHT22;14648;49.730;8.614;2022-09-20T16:55:51;16.20;48.40
27114;DHT22;14648;49.730;8.614;2022-09-20T16:58:28;16.20;48.70
27114;DHT22;14648;49.730;8.614;2022-09-20T17:01:07;16.10;49.10
27114;DHT22;14648;49.730;8.614;2022-09-20T17:03:33;16.00;49.30
27114;DHT22;14648;49.730;8.614;2022-09-20T17:06:06;16.00;49.30
27114;DHT22;14648;49.730;8.614;2022-09-20T17:08:36;15.90;49.70
27114;DHT22;14648;49.730;8.614;2022-09-20T17:11:09;15.90;49.80
27114;DHT22;14648;49.730;8.614;2022-09-20T17:13:44;15.80;50.10
27114;DHT22;14648;49.730;8.614;2022-09-20T17:16:19;15.70;50.20
27114;DHT22;14648;49.730;8.614;2022-09-20T17:18:53;15.50;50.60
27114;DHT22;14648;49.730;8.614;2022-09-20T17:21:21;15.40;50.70
27114;DHT22;14648;49.730;8.614;2022-09-20T17:23:49;15.40;51.00
27114;DHT22;14648;49.730;8.614;2022-09-20T17:26:21;15.30;51.20
27114;DHT22;14648;49.730;8.614;2022-09-20T17:28:53;15.20;51.40
27114;DHT22;14648;49.730;8.614;2022-09-20T17:31:22;15.10;51.60
27114;DHT22;14648;49.730;8.614;2022-09-20T17:33:50;15.00;51.60
27114;DHT22;14648;49.730;8.614;2022-09-20T17:36:18;14.90;51.80
27114;DHT22;14648;49.730;8.614;2022-09-20T17:38:46;14.80;52.00
27114;DHT22;14648;49.730;8.614;2022-09-20T17:41:17;14.80;52.10
27114;DHT22;14648;49.730;8.614;2022-09-20T17:43:45;14.60;52.30
27114;DHT22;14648;49.730;8.614;2022-09-20T17:46:15;14.60;52.40
27114;DHT22;14648;49.730;8.614;2022-09-20T17:48:45;14.50;52.60
27114;DHT22;14648;49.730;8.614;2022-09-20T17:51:19;14.50;52.40
27114;DHT22;14648;49.730;8.614;2022-09-20T17:53:45;14.40;52.60
27114;DHT22;14648;49.730;8.614;2022-09-20T17:56:12;14.40;52.60
27114;DHT22;14648;49.730;8.614;2022-09-20T17:58:39;14.30;52.60
27114;DHT22;14648;49.730;8.614;2022-09-20T18:01:14;14.30;52.80
27114;DHT22;14648;49.730;8.614;2022-09-20T18:03:44;14.20;53.10
27114;DHT22;14648;49.730;8.614;2022-09-20T18:06:21;14.20;53.00
27114;DHT22;14648;49.730;8.614;2022-09-20T18:08:58;14.20;53.10
27114;DHT22;14648;49.730;8.614;2022-09-20T18:11:35;14.10;53.20
27114;DHT22;14648;49.730;8.614;2022-09-20T18:14:04;14.10;53.30
27114;DHT22;14648;49.730;8.614;2022-09-20T18:16:32;14.10;53.20
27114;DHT22;14648;49.730;8.614;2022-09-20T18:19:00;14.10;53.30
27114;DHT22;14648;49.730;8.614;2022-09-20T18:21:28;14.10;53.30
27114;DHT22;14648;49.730;8.614;2022-09-20T18:23:55;14.10;53.50
27114;DHT22;14648;49.730;8.614;2022-09-20T18:26:25;14.00;53.40
27114;DHT22;14648;49.730;8.614;2022-09-20T18:29:00;14.00;53.70
27114;DHT22;14648;49.730;8.614;2022-09-20T18:31:41;14.00;53.90
27114;DHT22;14648;49.730;8.614;2022-09-20T18:34:19;13.90;53.90
27114;DHT22;14648;49.730;8.614;2022-09-20T18:36:49;13.90;54.00
27114;DHT22;14648;49.730;8.614;2022-09-20T18:39:25;13.80;54.00
27114;DHT22;14648;49.730;8.614;2022-09-20T18:41:52;13.80;54.20
27114;DHT22;14648;49.730;8.614;2022-09-20T18:44:19;13.80;54.10
27114;DHT22;14648;49.730;8.614;2022-09-20T18:46:45;13.80;54.30
27114;DHT22;14648;49.730;8.614;2022-09-20T18:49:12;13.80;54.40
27114;DHT22;14648;49.730;8.614;2022-09-20T18:51:40;13.80;54.40
27114;DHT22;14648;49.730;8.614;2022-09-20T18:54:07;13.70;54.50
27114;DHT22;14648;49.730;8.614;2022-09-20T18:56:36;13.70;54.60
27114;DHT22;14648;49.730;8.614;2022-09-20T18:59:05;13.60;54.60
27114;DHT22;14648;49.730;8.614;2022-09-20T19:02:02;13.70;54.90
27114;DHT22;14648;49.730;8.614;2022-09-20T19:10:47;13.50;55.20
27114;DHT22;14648;49.730;8.614;2022-09-20T19:13:33;13.50;55.20
27114;DHT22;14648;49.730;8.614;2022-09-20T19:16:14;13.50;55.40
27114;DHT22;14648;49.730;8.614;2022-09-20T19:22:00;13.60;55.60
27114;DHT22;14648;49.730;8.614;2022-09-20T19:27:32;13.60;55.70
27114;DHT22;14648;49.730;8.614;2022-09-20T19:29:58;13.60;55.50
27114;DHT22;14648;49.730;8.614;2022-09-20T19:32:24;13.60;55.70
27114;DHT22;14648;49.730;8.614;2022-09-20T19:34:54;13.60;55.90
27114;DHT22;14648;49.730;8.614;2022-09-20T19:37:49;13.60;56.20
27114;DHT22;14648;49.730;8.614;2022-09-20T19:43:54;13.60;56.50
27114;DHT22;14648;49.730;8.614;2022-09-20T19:46:57;13.60;56.30
27114;DHT22;14648;49.730;8.614;2022-09-20T19:52:53;13.60;56.80
27114;DHT22;14648;49.730;8.614;2022-09-20T19:55:20;13.50;56.70
27114;DHT22;14648;49.730;8.614;2022-09-20T19:57:47;13.60;56.90
27114;DHT22;14648;49.730;8.614;2022-09-20T20:00:15;13.50;57.10
27114;DHT22;14648;49.730;8.614;2022-09-20T20:02:43;13.50;57.20
27114;DHT22;14648;49.730;8.614;2022-09-20T20:05:15;13.50;57.30
27114;DHT22;14648;49.730;8.614;2022-09-20T20:07:48;13.50;57.50
27114;DHT22;14648;49.730;8.614;2022-09-20T20:13:30;13.50;57.60
27114;DHT22;14648;49.730;8.614;2022-09-20T20:16:26;13.50;57.80
27114;DHT22;14648;49.730;8.614;2022-09-20T20:19:15;13.40;57.60
27114;DHT22;14648;49.730;8.614;2022-09-20T20:22:31;13.40;57.90
27114;DHT22;14648;49.730;8.614;2022-09-20T20:25:32;13.50;60.00
27114;DHT22;14648;49.730;8.614;2022-09-20T20:28:12;13.40;58.90
27114;DHT22;14648;49.730;8.614;2022-09-20T20:30:38;13.40;58.70
27114;DHT22;14648;49.730;8.614;2022-09-20T20:33:04;13.40;58.70
27114;DHT22;14648;49.730;8.614;2022-09-20T20:35:31;13.40;58.80
27114;DHT22;14648;49.730;8.614;2022-09-20T20:37:57;13.40;58.80
27114;DHT22;14648;49.730;8.614;2022-09-20T20:40:22;13.40;58.90
27114;DHT22;14648;49.730;8.614;2022-09-20T20:42:54;13.30;58.90
27114;DHT22;14648;49.730;8.614;2022-09-20T20:45:26;13.30;59.10